N750GK KSBA-KASE
Flight info
| Callsign | N750GK |
|---|---|
| Flight time | 1h 34m |
| Altitude | 37000 |
| Route | MISHN5 NNAVY LAS BAWER ERRDA LOYYD1 |
| Aircraft | C750/M-VGDW/C |
Departure
| Time | 2026-04-23 19:21 |
|---|---|
| Airport | Santa Barbara Municipal Airport (KSBA) |
Arrival
| Time | 2026-04-23 20:55 |
|---|---|
| Airport | Aspen-Pitkin County Airport (Sardy Field) (KASE) |
| Time | Latitude | Longitude | Altitude | Speed | Heading |
|---|---|---|---|---|---|
| 2026-04-23 19:15 | 34.43241 | -119.83507 | 17 ft | 0 kts | 79° |
| 2026-04-23 19:18 | 34.43240 | -119.83503 | 17 ft | 3 kts | 104° |
| 2026-04-23 19:18 | 34.43214 | -119.83510 | 19 ft | 7 kts | 225° |
| 2026-04-23 19:19 | 34.43159 | -119.83683 | 15 ft | 13 kts | 251° |
| 2026-04-23 19:19 | 34.43130 | -119.83782 | 15 ft | 12 kts | 250° |
| 2026-04-23 19:20 | 34.43071 | -119.83980 | 12 ft | 13 kts | 248° |
| 2026-04-23 19:20 | 34.43051 | -119.84073 | 13 ft | 11 kts | 264° |
| 2026-04-23 19:20 | 34.43040 | -119.84144 | 14 ft | 6 kts | 224° |
| 2026-04-23 19:20 | 34.42995 | -119.84137 | 15 ft | 27 kts | 166° |
| 2026-04-23 19:21 | 34.42418 | -119.83958 | 23 ft | 133 kts | 166° |
| 2026-04-23 19:21 | 34.40435 | -119.83323 | 1171 ft | 154 kts | 164° |
| 2026-04-23 19:21 | 34.39363 | -119.82958 | 1906 ft | 167 kts | 165° |
| 2026-04-23 19:22 | 34.38199 | -119.82575 | 2676 ft | 180 kts | 166° |
| 2026-04-23 19:22 | 34.36946 | -119.82168 | 3449 ft | 193 kts | 166° |
| 2026-04-23 19:22 | 34.34155 | -119.81258 | 5012 ft | 221 kts | 163° |
| 2026-04-23 19:23 | 34.32638 | -119.80724 | 5767 ft | 233 kts | 158° |
| 2026-04-23 19:23 | 34.31355 | -119.79525 | 6429 ft | 245 kts | 131° |
| 2026-04-23 19:23 | 34.30162 | -119.77908 | 6902 ft | 271 kts | 130° |
| 2026-04-23 19:24 | 34.27487 | -119.74427 | 8672 ft | 288 kts | 133° |
| 2026-04-23 19:24 | 34.26097 | -119.72625 | 9578 ft | 297 kts | 133° |
| 2026-04-23 19:24 | 34.23155 | -119.68789 | 10618 ft | 333 kts | 134° |
| 2026-04-23 19:25 | 34.19781 | -119.64409 | 11233 ft | 371 kts | 134° |
| 2026-04-23 19:25 | 34.16232 | -119.59798 | 12634 ft | 381 kts | 134° |
| 2026-04-23 19:26 | 34.14045 | -119.53903 | 13700 ft | 400 kts | 95° |
| 2026-04-23 19:26 | 34.14253 | -119.50566 | 14361 ft | 400 kts | 78° |
| 2026-04-23 19:27 | 34.15416 | -119.43972 | 15561 ft | 408 kts | 76° |
| 2026-04-23 19:27 | 34.17140 | -119.33726 | 17426 ft | 422 kts | 76° |
| 2026-04-23 19:28 | 34.18350 | -119.26708 | 18694 ft | 431 kts | 77° |
| 2026-04-23 19:28 | 34.19549 | -119.19544 | 19949 ft | 439 kts | 77° |
| 2026-04-23 19:29 | 34.20156 | -119.15964 | 20577 ft | 443 kts | 77° |
| 2026-04-23 19:29 | 34.21418 | -119.08590 | 21805 ft | 451 kts | 75° |
| 2026-04-23 19:30 | 34.22920 | -119.01184 | 23048 ft | 460 kts | 75° |
| 2026-04-23 19:30 | 34.23669 | -118.97408 | 23652 ft | 464 kts | 75° |
| 2026-04-23 19:30 | 34.25198 | -118.89752 | 24691 ft | 472 kts | 75° |
| 2026-04-23 19:31 | 34.25973 | -118.85880 | 25208 ft | 475 kts | 75° |
| 2026-04-23 19:31 | 34.26746 | -118.81985 | 25728 ft | 479 kts | 75° |
| 2026-04-23 19:31 | 34.27523 | -118.78060 | 26248 ft | 482 kts | 75° |
| 2026-04-23 19:31 | 34.28309 | -118.74101 | 26761 ft | 485 kts | 75° |
| 2026-04-23 19:32 | 34.28831 | -118.71471 | 27096 ft | 488 kts | 75° |
| 2026-04-23 19:32 | 34.29626 | -118.67453 | 27616 ft | 491 kts | 75° |
| 2026-04-23 19:32 | 34.30681 | -118.62094 | 28274 ft | 496 kts | 76° |
| 2026-04-23 19:32 | 34.31484 | -118.58015 | 28766 ft | 500 kts | 76° |
| 2026-04-23 19:33 | 34.32030 | -118.55240 | 29096 ft | 502 kts | 76° |
| 2026-04-23 19:33 | 34.32832 | -118.51156 | 29580 ft | 506 kts | 76° |
| 2026-04-23 19:33 | 34.34466 | -118.42797 | 30484 ft | 513 kts | 76° |
| 2026-04-23 19:34 | 34.35288 | -118.38584 | 30914 ft | 515 kts | 76° |
| 2026-04-23 19:34 | 34.36111 | -118.34360 | 31442 ft | 515 kts | 76° |
| 2026-04-23 19:34 | 34.37742 | -118.25958 | 32710 ft | 511 kts | 76° |
| 2026-04-23 19:35 | 34.38554 | -118.21760 | 33345 ft | 509 kts | 76° |
| 2026-04-23 19:35 | 34.39359 | -118.17590 | 33980 ft | 508 kts | 76° |
| 2026-04-23 19:35 | 34.40150 | -118.13488 | 34534 ft | 506 kts | 76° |
| 2026-04-23 19:35 | 34.40950 | -118.09336 | 35064 ft | 505 kts | 76° |
| 2026-04-23 19:36 | 34.41748 | -118.05187 | 35578 ft | 505 kts | 76° |
| 2026-04-23 19:36 | 34.42776 | -118.01111 | 35990 ft | 505 kts | 67° |
| 2026-04-23 19:36 | 34.44222 | -117.97243 | 36547 ft | 503 kts | 61° |
| 2026-04-23 19:36 | 34.45818 | -117.93481 | 37096 ft | 502 kts | 60° |
| 2026-04-23 19:37 | 34.47362 | -117.89675 | 37097 ft | 515 kts | 63° |
| 2026-04-23 19:37 | 34.48842 | -117.85670 | 37100 ft | 526 kts | 64° |
| 2026-04-23 19:37 | 34.50366 | -117.81592 | 37094 ft | 536 kts | 63° |
| 2026-04-23 19:38 | 34.53674 | -117.73311 | 37089 ft | 555 kts | 62° |
| 2026-04-23 19:38 | 34.56936 | -117.64704 | 37102 ft | 564 kts | 63° |
| 2026-04-23 19:39 | 34.60306 | -117.56075 | 37122 ft | 566 kts | 63° |
| 2026-04-23 19:39 | 34.63605 | -117.47440 | 37140 ft | 567 kts | 63° |
| 2026-04-23 19:40 | 34.66960 | -117.38726 | 37136 ft | 568 kts | 63° |
| 2026-04-23 19:40 | 34.70289 | -117.30015 | 37125 ft | 568 kts | 63° |
| 2026-04-23 19:41 | 34.73615 | -117.21302 | 37100 ft | 568 kts | 63° |
| 2026-04-23 19:41 | 34.76945 | -117.12561 | 37085 ft | 570 kts | 63° |
| 2026-04-23 19:42 | 34.80257 | -117.03827 | 37071 ft | 572 kts | 63° |
| 2026-04-23 19:42 | 34.83593 | -116.95024 | 37089 ft | 572 kts | 63° |
| 2026-04-23 19:43 | 34.86921 | -116.86205 | 37088 ft | 572 kts | 63° |
| 2026-04-23 19:43 | 34.90243 | -116.77391 | 37086 ft | 572 kts | 63° |
| 2026-04-23 19:44 | 34.94426 | -116.69235 | 37064 ft | 565 kts | 47° |
| 2026-04-23 19:44 | 34.99825 | -116.62309 | 37065 ft | 561 kts | 40° |
| 2026-04-23 19:45 | 35.05184 | -116.55419 | 37056 ft | 566 kts | 45° |
| 2026-04-23 19:45 | 35.10423 | -116.48216 | 37036 ft | 564 kts | 42° |
| 2026-04-23 19:46 | 35.15825 | -116.41234 | 37054 ft | 566 kts | 44° |
| 2026-04-23 19:46 | 35.21085 | -116.34037 | 37054 ft | 567 kts | 43° |
| 2026-04-23 19:47 | 35.26469 | -116.26972 | 37039 ft | 568 kts | 43° |
| 2026-04-23 19:47 | 35.31774 | -116.19762 | 37040 ft | 569 kts | 44° |
| 2026-04-23 19:48 | 35.37108 | -116.12666 | 37048 ft | 569 kts | 43° |
| 2026-04-23 19:48 | 35.42424 | -116.05466 | 37048 ft | 569 kts | 44° |
| 2026-04-23 19:49 | 35.47759 | -115.98295 | 37054 ft | 569 kts | 43° |
| 2026-04-23 19:49 | 35.53081 | -115.91089 | 37055 ft | 571 kts | 44° |
| 2026-04-23 19:50 | 35.58415 | -115.83866 | 37063 ft | 570 kts | 43° |
| 2026-04-23 19:50 | 35.63712 | -115.76676 | 37063 ft | 571 kts | 44° |
| 2026-04-23 19:51 | 35.69035 | -115.69431 | 37070 ft | 570 kts | 43° |
| 2026-04-23 19:51 | 35.74365 | -115.62168 | 37077 ft | 572 kts | 44° |
| 2026-04-23 19:52 | 35.79694 | -115.54885 | 37077 ft | 572 kts | 44° |
| 2026-04-23 19:52 | 35.85021 | -115.47593 | 37076 ft | 575 kts | 43° |
| 2026-04-23 19:53 | 35.90374 | -115.40243 | 37082 ft | 576 kts | 43° |
| 2026-04-23 19:53 | 35.95693 | -115.32930 | 37096 ft | 576 kts | 43° |
| 2026-04-23 19:54 | 36.01058 | -115.25535 | 37087 ft | 577 kts | 43° |
| 2026-04-23 19:54 | 36.06417 | -115.18131 | 37069 ft | 577 kts | 43° |
| 2026-04-23 19:55 | 36.11269 | -115.10237 | 37060 ft | 583 kts | 52° |
| 2026-04-23 19:55 | 36.15818 | -115.01927 | 37020 ft | 583 kts | 51° |
| 2026-04-23 19:56 | 36.20525 | -114.93691 | 37019 ft | 587 kts | 51° |
| 2026-04-23 19:56 | 36.25139 | -114.85319 | 37010 ft | 588 kts | 51° |
| 2026-04-23 19:57 | 36.29822 | -114.77003 | 36996 ft | 587 kts | 51° |
| 2026-04-23 19:57 | 36.34422 | -114.68677 | 36982 ft | 587 kts | 51° |
| 2026-04-23 19:58 | 36.39076 | -114.60324 | 36966 ft | 590 kts | 51° |
| 2026-04-23 19:58 | 36.43705 | -114.51939 | 36967 ft | 588 kts | 52° |
| 2026-04-23 19:59 | 36.48336 | -114.43564 | 36968 ft | 588 kts | 51° |
| 2026-04-23 19:59 | 36.52933 | -114.35216 | 36962 ft | 589 kts | 51° |
| 2026-04-23 20:00 | 36.57569 | -114.26776 | 36979 ft | 592 kts | 51° |
| 2026-04-23 20:00 | 36.62211 | -114.18303 | 36976 ft | 592 kts | 51° |
| 2026-04-23 20:01 | 36.66855 | -114.09815 | 36983 ft | 592 kts | 51° |
| 2026-04-23 20:01 | 36.71490 | -114.01312 | 36990 ft | 594 kts | 51° |
| 2026-04-23 20:02 | 36.76102 | -113.92836 | 36990 ft | 594 kts | 51° |
| 2026-04-23 20:02 | 36.80732 | -113.84298 | 36990 ft | 593 kts | 51° |
| 2026-04-23 20:03 | 36.85368 | -113.75737 | 37006 ft | 593 kts | 51° |
| 2026-04-23 20:03 | 36.89992 | -113.67170 | 37017 ft | 594 kts | 51° |
| 2026-04-23 20:04 | 36.94599 | -113.58618 | 37027 ft | 596 kts | 51° |
| 2026-04-23 20:04 | 36.99225 | -113.50001 | 37033 ft | 596 kts | 51° |
| 2026-04-23 20:05 | 37.03847 | -113.41376 | 37010 ft | 597 kts | 51° |
| 2026-04-23 20:05 | 37.08471 | -113.32720 | 37022 ft | 598 kts | 51° |
| 2026-04-23 20:06 | 37.13093 | -113.24048 | 37030 ft | 597 kts | 51° |
| 2026-04-23 20:06 | 37.17674 | -113.15433 | 37031 ft | 598 kts | 51° |
| 2026-04-23 20:07 | 37.22278 | -113.06750 | 37020 ft | 600 kts | 51° |
| 2026-04-23 20:07 | 37.26906 | -112.97997 | 36983 ft | 600 kts | 51° |
| 2026-04-23 20:08 | 37.31510 | -112.89275 | 36988 ft | 596 kts | 51° |
| 2026-04-23 20:08 | 37.36074 | -112.80594 | 36962 ft | 600 kts | 51° |
| 2026-04-23 20:09 | 37.40679 | -112.71816 | 36963 ft | 601 kts | 51° |
| 2026-04-23 20:09 | 37.45276 | -112.63040 | 36963 ft | 601 kts | 51° |
| 2026-04-23 20:10 | 37.49096 | -112.55712 | 36947 ft | 601 kts | 51° |
| 2026-04-23 20:10 | 37.54468 | -112.45403 | 36998 ft | 601 kts | 51° |
| 2026-04-23 20:11 | 37.59024 | -112.36626 | 37033 ft | 603 kts | 51° |
| 2026-04-23 20:11 | 37.63597 | -112.27728 | 37067 ft | 605 kts | 54° |
| 2026-04-23 20:12 | 37.67577 | -112.18372 | 37109 ft | 605 kts | 58° |
| 2026-04-23 20:12 | 37.71530 | -112.08983 | 37107 ft | 605 kts | 57° |
| 2026-04-23 20:13 | 37.75486 | -111.99634 | 37065 ft | 603 kts | 58° |
| 2026-04-23 20:13 | 37.79395 | -111.90284 | 37018 ft | 605 kts | 57° |
| 2026-04-23 20:14 | 37.83340 | -111.80905 | 36970 ft | 605 kts | 58° |
| 2026-04-23 20:14 | 37.87254 | -111.71486 | 36928 ft | 604 kts | 58° |
| 2026-04-23 20:15 | 37.91188 | -111.62068 | 36955 ft | 604 kts | 58° |
| 2026-04-23 20:15 | 37.95105 | -111.52605 | 36925 ft | 605 kts | 58° |
| 2026-04-23 20:16 | 37.98989 | -111.43233 | 36930 ft | 604 kts | 58° |
| 2026-04-23 20:16 | 38.02884 | -111.33777 | 36921 ft | 603 kts | 58° |
| 2026-04-23 20:17 | 38.06763 | -111.24347 | 36923 ft | 603 kts | 58° |
| 2026-04-23 20:17 | 38.10623 | -111.14943 | 36926 ft | 600 kts | 58° |
| 2026-04-23 20:18 | 38.14474 | -111.05511 | 36913 ft | 600 kts | 58° |
| 2026-04-23 20:18 | 38.18325 | -110.96071 | 36938 ft | 602 kts | 58° |
| 2026-04-23 20:19 | 38.22138 | -110.86679 | 36976 ft | 601 kts | 58° |
| 2026-04-23 20:19 | 38.25974 | -110.77214 | 37016 ft | 601 kts | 58° |
| 2026-04-23 20:20 | 38.29796 | -110.67746 | 37044 ft | 601 kts | 59° |
| 2026-04-23 20:20 | 38.32967 | -110.59874 | 36927 ft | 601 kts | 59° |
| 2026-04-23 20:21 | 38.36775 | -110.50395 | 36925 ft | 601 kts | 59° |
| 2026-04-23 20:21 | 38.41190 | -110.39362 | 36927 ft | 601 kts | 59° |
| 2026-04-23 20:22 | 38.44364 | -110.31411 | 36928 ft | 601 kts | 59° |
| 2026-04-23 20:22 | 38.48134 | -110.21933 | 36926 ft | 595 kts | 59° |
| 2026-04-23 20:23 | 38.51857 | -110.12553 | 36930 ft | 595 kts | 59° |
| 2026-04-23 20:23 | 38.54719 | -110.02572 | 36913 ft | 602 kts | 73° |
| 2026-04-23 20:24 | 38.56477 | -109.92085 | 36936 ft | 603 kts | 76° |
| 2026-04-23 20:24 | 38.58578 | -109.81773 | 36934 ft | 602 kts | 72° |
| 2026-04-23 20:25 | 38.60477 | -109.71340 | 36932 ft | 603 kts | 76° |
| 2026-04-23 20:25 | 38.62467 | -109.60940 | 36939 ft | 601 kts | 73° |
| 2026-04-23 20:26 | 38.64419 | -109.50515 | 36942 ft | 603 kts | 75° |
| 2026-04-23 20:26 | 38.66342 | -109.40100 | 36949 ft | 599 kts | 73° |
| 2026-04-23 20:27 | 38.68297 | -109.29701 | 36941 ft | 601 kts | 75° |
| 2026-04-23 20:27 | 38.70176 | -109.19349 | 36936 ft | 601 kts | 74° |
| 2026-04-23 20:28 | 38.72117 | -109.08924 | 36943 ft | 600 kts | 75° |
| 2026-04-23 20:28 | 38.73989 | -108.98526 | 36946 ft | 600 kts | 75° |
| 2026-04-23 20:29 | 38.75898 | -108.88116 | 36942 ft | 599 kts | 75° |
| 2026-04-23 20:29 | 38.77762 | -108.77696 | 36934 ft | 599 kts | 75° |
| 2026-04-23 20:30 | 38.79636 | -108.67327 | 36910 ft | 598 kts | 75° |
| 2026-04-23 20:30 | 38.82012 | -108.57365 | 36038 ft | 565 kts | 65° |
| 2026-04-23 20:30 | 38.83463 | -108.52842 | 35320 ft | 546 kts | 63° |
| 2026-04-23 20:31 | 38.84864 | -108.48395 | 34620 ft | 533 kts | 65° |
| 2026-04-23 20:31 | 38.86115 | -108.43948 | 33923 ft | 528 kts | 67° |
| 2026-04-23 20:31 | 38.87343 | -108.39529 | 33180 ft | 522 kts | 66° |
| 2026-04-23 20:31 | 38.88637 | -108.35211 | 32509 ft | 515 kts | 64° |
| 2026-04-23 20:32 | 38.89945 | -108.30940 | 31837 ft | 513 kts | 65° |
| 2026-04-23 20:32 | 38.91192 | -108.26654 | 31165 ft | 510 kts | 66° |
| 2026-04-23 20:32 | 38.92398 | -108.22392 | 30501 ft | 507 kts | 66° |
| 2026-04-23 20:32 | 38.93624 | -108.18181 | 29802 ft | 497 kts | 66° |
| 2026-04-23 20:33 | 38.94844 | -108.14075 | 29134 ft | 487 kts | 66° |
| 2026-04-23 20:33 | 38.96029 | -108.10025 | 28593 ft | 480 kts | 66° |
| 2026-04-23 20:33 | 38.97167 | -108.06056 | 28101 ft | 477 kts | 66° |
| 2026-04-23 20:33 | 38.98315 | -108.02067 | 27597 ft | 473 kts | 66° |
| 2026-04-23 20:34 | 38.99461 | -107.98130 | 27107 ft | 469 kts | 66° |
| 2026-04-23 20:34 | 39.00596 | -107.94224 | 26611 ft | 463 kts | 66° |
| 2026-04-23 20:34 | 39.01708 | -107.90356 | 26126 ft | 458 kts | 66° |
| 2026-04-23 20:34 | 39.02806 | -107.86526 | 25644 ft | 453 kts | 66° |
| 2026-04-23 20:35 | 39.03894 | -107.82747 | 25167 ft | 448 kts | 66° |
| 2026-04-23 20:35 | 39.04972 | -107.79007 | 24709 ft | 444 kts | 65° |
| 2026-04-23 20:35 | 39.06036 | -107.75296 | 24281 ft | 439 kts | 65° |
| 2026-04-23 20:35 | 39.07089 | -107.71614 | 23869 ft | 438 kts | 66° |
| 2026-04-23 20:36 | 39.08122 | -107.67998 | 23443 ft | 433 kts | 65° |
| 2026-04-23 20:36 | 39.09158 | -107.64375 | 22904 ft | 430 kts | 66° |
| 2026-04-23 20:36 | 39.10167 | -107.60830 | 22367 ft | 409 kts | 65° |
| 2026-04-23 20:36 | 39.11119 | -107.57494 | 21955 ft | 385 kts | 65° |
| 2026-04-23 20:37 | 39.12048 | -107.54360 | 21562 ft | 365 kts | 64° |
| 2026-04-23 20:37 | 39.12947 | -107.51350 | 21197 ft | 357 kts | 64° |
| 2026-04-23 20:37 | 39.13821 | -107.48366 | 20837 ft | 356 kts | 65° |
| 2026-04-23 20:37 | 39.14684 | -107.45379 | 20449 ft | 355 kts | 65° |
| 2026-04-23 20:38 | 39.15546 | -107.42412 | 20086 ft | 352 kts | 65° |
| 2026-04-23 20:38 | 39.16113 | -107.39353 | 19776 ft | 354 kts | 84° |
| 2026-04-23 20:38 | 39.16095 | -107.36158 | 19843 ft | 360 kts | 90° |
| 2026-04-23 20:38 | 39.16053 | -107.32985 | 19865 ft | 356 kts | 90° |
| 2026-04-23 20:39 | 39.16010 | -107.29745 | 19842 ft | 359 kts | 89° |
| 2026-04-23 20:39 | 39.15969 | -107.26559 | 19829 ft | 363 kts | 89° |
| 2026-04-23 20:39 | 39.15926 | -107.23335 | 19841 ft | 358 kts | 90° |
| 2026-04-23 20:39 | 39.15881 | -107.20132 | 19838 ft | 360 kts | 89° |
| 2026-04-23 20:40 | 39.15836 | -107.16894 | 19818 ft | 363 kts | 89° |
| 2026-04-23 20:40 | 39.15790 | -107.13683 | 19807 ft | 357 kts | 89° |
| 2026-04-23 20:40 | 39.15742 | -107.10485 | 19820 ft | 360 kts | 90° |
| 2026-04-23 20:40 | 39.15694 | -107.07243 | 19702 ft | 371 kts | 90° |
| 2026-04-23 20:41 | 39.15644 | -107.03946 | 19410 ft | 363 kts | 90° |
| 2026-04-23 20:41 | 39.15593 | -107.00754 | 19075 ft | 350 kts | 90° |
| 2026-04-23 20:41 | 39.15545 | -106.97740 | 18701 ft | 324 kts | 90° |
| 2026-04-23 20:41 | 39.15500 | -106.94931 | 18390 ft | 306 kts | 90° |
| 2026-04-23 20:42 | 39.15456 | -106.92234 | 18098 ft | 298 kts | 90° |
| 2026-04-23 20:42 | 39.15452 | -106.89547 | 17765 ft | 298 kts | 85° |
| 2026-04-23 20:42 | 39.16087 | -106.87036 | 17671 ft | 294 kts | 57° |
| 2026-04-23 20:42 | 39.17315 | -106.84993 | 17461 ft | 287 kts | 45° |
| 2026-04-23 20:43 | 39.18639 | -106.83031 | 17251 ft | 289 kts | 45° |
| 2026-04-23 20:43 | 39.19942 | -106.81087 | 17013 ft | 289 kts | 45° |
| 2026-04-23 20:43 | 39.21238 | -106.79106 | 16744 ft | 286 kts | 46° |
| 2026-04-23 20:43 | 39.22516 | -106.77139 | 16473 ft | 288 kts | 45° |
| 2026-04-23 20:44 | 39.23804 | -106.75186 | 16221 ft | 284 kts | 45° |
| 2026-04-23 20:44 | 39.25094 | -106.73246 | 15962 ft | 285 kts | 44° |
| 2026-04-23 20:44 | 39.26376 | -106.71296 | 15709 ft | 284 kts | 45° |
| 2026-04-23 20:44 | 39.27648 | -106.69353 | 15459 ft | 288 kts | 44° |
| 2026-04-23 20:45 | 39.29051 | -106.67541 | 15099 ft | 278 kts | 27° |
| 2026-04-23 20:45 | 39.30788 | -106.66622 | 14851 ft | 265 kts | 4° |
| 2026-04-23 20:45 | 39.32571 | -106.66586 | 14569 ft | 251 kts | 343° |
| 2026-04-23 20:45 | 39.34174 | -106.67274 | 14435 ft | 238 kts | 330° |
| 2026-04-23 20:46 | 39.35742 | -106.68078 | 14247 ft | 244 kts | 332° |
| 2026-04-23 20:46 | 39.37248 | -106.69021 | 13975 ft | 234 kts | 317° |
| 2026-04-23 20:46 | 39.38336 | -106.70523 | 13796 ft | 226 kts | 299° |
| 2026-04-23 20:46 | 39.38985 | -106.72381 | 13798 ft | 226 kts | 286° |
| 2026-04-23 20:47 | 39.39521 | -106.74250 | 13842 ft | 225 kts | 288° |
| 2026-04-23 20:47 | 39.40076 | -106.76129 | 13817 ft | 229 kts | 288° |
| 2026-04-23 20:47 | 39.40652 | -106.78087 | 13813 ft | 230 kts | 288° |
| 2026-04-23 20:47 | 39.41201 | -106.79993 | 13799 ft | 219 kts | 287° |
| 2026-04-23 20:48 | 39.41724 | -106.81826 | 13774 ft | 219 kts | 287° |
| 2026-04-23 20:48 | 39.42253 | -106.83647 | 13861 ft | 224 kts | 288° |
| 2026-04-23 20:48 | 39.42799 | -106.85510 | 13770 ft | 226 kts | 288° |
| 2026-04-23 20:48 | 39.43351 | -106.87443 | 13821 ft | 233 kts | 288° |
| 2026-04-23 20:49 | 39.43951 | -106.89396 | 13885 ft | 235 kts | 292° |
| 2026-04-23 20:49 | 39.44935 | -106.91070 | 13945 ft | 231 kts | 305° |
| 2026-04-23 20:49 | 39.45964 | -106.92719 | 13925 ft | 234 kts | 301° |
| 2026-04-23 20:49 | 39.46543 | -106.94573 | 13917 ft | 220 kts | 281° |
| 2026-04-23 20:50 | 39.46618 | -106.96551 | 13921 ft | 222 kts | 264° |
| 2026-04-23 20:50 | 39.46192 | -106.98416 | 13860 ft | 205 kts | 247° |
| 2026-04-23 20:50 | 39.45188 | -106.99617 | 13632 ft | 203 kts | 207° |
| 2026-04-23 20:50 | 39.43771 | -106.99506 | 13423 ft | 215 kts | 165° |
| 2026-04-23 20:51 | 39.42383 | -106.98846 | 13417 ft | 214 kts | 171° |
| 2026-04-23 20:51 | 39.40958 | -106.98305 | 13313 ft | 211 kts | 172° |
| 2026-04-23 20:51 | 39.39592 | -106.97603 | 13093 ft | 221 kts | 157° |
| 2026-04-23 20:51 | 39.38332 | -106.96437 | 12979 ft | 223 kts | 150° |
| 2026-04-23 20:52 | 39.37075 | -106.95213 | 12745 ft | 223 kts | 152° |
| 2026-04-23 20:52 | 39.35717 | -106.94240 | 12235 ft | 221 kts | 160° |
| 2026-04-23 20:52 | 39.34321 | -106.93323 | 11443 ft | 228 kts | 159° |
| 2026-04-23 20:52 | 39.32970 | -106.92371 | 11024 ft | 218 kts | 159° |
| 2026-04-23 20:53 | 39.31618 | -106.91373 | 10521 ft | 224 kts | 160° |
| 2026-04-23 20:53 | 39.30271 | -106.90677 | 10215 ft | 197 kts | 168° |
| 2026-04-23 20:53 | 39.29078 | -106.90093 | 9838 ft | 174 kts | 170° |
| 2026-04-23 20:53 | 39.27970 | -106.89576 | 9441 ft | 164 kts | 168° |
| 2026-04-23 20:54 | 39.26908 | -106.89091 | 8965 ft | 159 kts | 167° |
| 2026-04-23 20:54 | 39.25857 | -106.88610 | 8439 ft | 159 kts | 165° |
| 2026-04-23 20:54 | 39.24833 | -106.88103 | 8115 ft | 156 kts | 169° |
| 2026-04-23 20:54 | 39.23813 | -106.87596 | 7767 ft | 159 kts | 167° |
| 2026-04-23 20:55 | 39.22831 | -106.87129 | 7718 ft | 135 kts | 164° |
| 2026-04-23 20:55 | 39.22117 | -106.86788 | 7767 ft | 78 kts | 160° |
| 2026-04-23 20:55 | 39.21887 | -106.86639 | 7789 ft | 13 kts | 118° |
| 2026-04-23 20:55 | 39.21898 | -106.86571 | 7789 ft | 9 kts | 17° |
| 2026-04-23 20:56 | 39.21971 | -106.86601 | 7779 ft | 14 kts | 341° |
| 2026-04-23 20:56 | 39.22060 | -106.86642 | 7769 ft | 7 kts | 343° |
| 2026-04-23 20:56 | 39.22090 | -106.86623 | 7768 ft | 2 kts | 40° |
| 2026-04-23 20:56 | 39.22091 | -106.86622 | 7768 ft | 0 kts | 40° |